sensor_id;sensor_type;location;lat;lon;timestamp;temperature;humidity
5806;DHT22;2929;50.810;8.342;2022-12-18T00:01:15;-11.00;99.90
5806;DHT22;2929;50.810;8.342;2022-12-18T00:03:42;-11.00;99.90
5806;DHT22;2929;50.810;8.342;2022-12-18T00:06:10;-10.90;99.90
5806;DHT22;2929;50.810;8.342;2022-12-18T00:08:37;-11.00;99.90
5806;DHT22;2929;50.810;8.342;2022-12-18T00:11:05;-11.00;99.90
5806;DHT22;2929;50.810;8.342;2022-12-18T00:13:32;-11.10;99.90
5806;DHT22;2929;50.810;8.342;2022-12-18T00:16:03;-11.10;99.90
5806;DHT22;2929;50.810;8.342;2022-12-18T00:18:31;-11.20;99.90
5806;DHT22;2929;50.810;8.342;2022-12-18T00:20:59;-11.20;99.90
5806;DHT22;2929;50.810;8.342;2022-12-18T00:23:26;-11.10;99.90
5806;DHT22;2929;50.810;8.342;2022-12-18T00:25:53;-11.20;99.90
5806;DHT22;2929;50.810;8.342;2022-12-18T00:28:20;-11.20;99.90
5806;DHT22;2929;50.810;8.342;2022-12-18T00:30:47;-11.30;99.90
5806;DHT22;2929;50.810;8.342;2022-12-18T00:33:18;-11.40;99.90
5806;DHT22;2929;50.810;8.342;2022-12-18T00:35:45;-11.40;99.90
5806;DHT22;2929;50.810;8.342;2022-12-18T00:38:13;-11.40;99.90
5806;DHT22;2929;50.810;8.342;2022-12-18T00:40:40;-11.40;99.90
5806;DHT22;2929;50.810;8.342;2022-12-18T00:43:08;-11.30;99.90
5806;DHT22;2929;50.810;8.342;2022-12-18T00:45:34;-11.20;99.90
5806;DHT22;2929;50.810;8.342;2022-12-18T00:48:02;-11.30;99.90
5806;DHT22;2929;50.810;8.342;2022-12-18T00:50:31;-11.30;99.90
5806;DHT22;2929;50.810;8.342;2022-12-18T00:53:00;-11.40;99.90
5806;DHT22;2929;50.810;8.342;2022-12-18T00:55:27;-11.50;99.90
5806;DHT22;2929;50.810;8.342;2022-12-18T00:57:54;-11.50;99.90
5806;DHT22;2929;50.810;8.342;2022-12-18T01:00:22;-11.50;99.90
5806;DHT22;2929;50.810;8.342;2022-12-18T01:02:49;-11.50;99.90
5806;DHT22;2929;50.810;8.342;2022-12-18T01:05:16;-11.40;99.90
5806;DHT22;2929;50.810;8.342;2022-12-18T01:07:45;-11.50;99.90
5806;DHT22;2929;50.810;8.342;2022-12-18T01:10:12;-11.50;99.90
5806;DHT22;2929;50.810;8.342;2022-12-18T01:12:40;-11.60;99.90
5806;DHT22;2929;50.810;8.342;2022-12-18T01:15:09;-11.70;99.90
5806;DHT22;2929;50.810;8.342;2022-12-18T01:17:36;-11.70;99.90
5806;DHT22;2929;50.810;8.342;2022-12-18T01:20:04;-11.70;99.90
5806;DHT22;2929;50.810;8.342;2022-12-18T01:22:32;-11.70;99.90
5806;DHT22;2929;50.810;8.342;2022-12-18T01:25:01;-11.60;99.90
5806;DHT22;2929;50.810;8.342;2022-12-18T01:27:28;-11.60;99.90
5806;DHT22;2929;50.810;8.342;2022-12-18T01:29:55;-11.50;99.90
5806;DHT22;2929;50.810;8.342;2022-12-18T01:32:22;-11.60;99.90
5806;DHT22;2929;50.810;8.342;2022-12-18T01:34:49;-11.50;99.90
5806;DHT22;2929;50.810;8.342;2022-12-18T01:37:16;-11.50;99.90
5806;DHT22;2929;50.810;8.342;2022-12-18T01:39:43;-11.60;99.90
5806;DHT22;2929;50.810;8.342;2022-12-18T01:42:14;-11.60;99.90
5806;DHT22;2929;50.810;8.342;2022-12-18T01:44:58;-11.60;99.90
5806;DHT22;2929;50.810;8.342;2022-12-18T01:47:28;-11.70;99.90
5806;DHT22;2929;50.810;8.342;2022-12-18T01:49:58;-11.70;99.90
5806;DHT22;2929;50.810;8.342;2022-12-18T01:52:28;-11.80;99.90
5806;DHT22;2929;50.810;8.342;2022-12-18T01:54:57;-11.90;99.90
5806;DHT22;2929;50.810;8.342;2022-12-18T01:57:27;-11.80;99.90
5806;DHT22;2929;50.810;8.342;2022-12-18T01:59:59;-11.80;99.90
5806;DHT22;2929;50.810;8.342;2022-12-18T02:02:32;-11.90;99.90
5806;DHT22;2929;50.810;8.342;2022-12-18T02:05:00;-11.70;99.90
5806;DHT22;2929;50.810;8.342;2022-12-18T02:07:36;-11.80;99.90
5806;DHT22;2929;50.810;8.342;2022-12-18T02:10:10;-11.80;99.90
5806;DHT22;2929;50.810;8.342;2022-12-18T02:12:43;-11.90;99.90
5806;DHT22;2929;50.810;8.342;2022-12-18T02:15:16;-11.90;99.90
5806;DHT22;2929;50.810;8.342;2022-12-18T02:17:49;-11.90;99.90
5806;DHT22;2929;50.810;8.342;2022-12-18T02:23:49;-12.00;99.90
5806;DHT22;2929;50.810;8.342;2022-12-18T02:26:25;-12.00;99.90
5806;DHT22;2929;50.810;8.342;2022-12-18T02:28:58;-11.90;99.90
5806;DHT22;2929;50.810;8.342;2022-12-18T02:31:30;-11.80;99.90
5806;DHT22;2929;50.810;8.342;2022-12-18T02:34:02;-11.80;99.90
5806;DHT22;2929;50.810;8.342;2022-12-18T02:36:38;-11.70;99.90
5806;DHT22;2929;50.810;8.342;2022-12-18T02:39:07;-11.70;99.90
5806;DHT22;2929;50.810;8.342;2022-12-18T02:41:40;-11.70;99.90
5806;DHT22;2929;50.810;8.342;2022-12-18T02:44:09;-11.80;99.90
5806;DHT22;2929;50.810;8.342;2022-12-18T02:46:39;-11.90;99.90
5806;DHT22;2929;50.810;8.342;2022-12-18T02:49:22;-11.80;99.90
5806;DHT22;2929;50.810;8.342;2022-12-18T02:51:59;-11.80;99.90
5806;DHT22;2929;50.810;8.342;2022-12-18T02:54:41;-11.80;99.90
5806;DHT22;2929;50.810;8.342;2022-12-18T02:57:20;-11.80;99.90
5806;DHT22;2929;50.810;8.342;2022-12-18T02:59:56;-11.80;99.90
5806;DHT22;2929;50.810;8.342;2022-12-18T03:02:29;-11.80;99.90
5806;DHT22;2929;50.810;8.342;2022-12-18T03:05:03;-11.70;99.90
5806;DHT22;2929;50.810;8.342;2022-12-18T03:07:37;-11.70;99.90
5806;DHT22;2929;50.810;8.342;2022-12-18T03:10:13;-11.80;99.90
5806;DHT22;2929;50.810;8.342;2022-12-18T03:12:46;-11.80;99.90
5806;DHT22;2929;50.810;8.342;2022-12-18T03:15:17;-11.90;99.90
5806;DHT22;2929;50.810;8.342;2022-12-18T03:17:55;-11.90;99.90
5806;DHT22;2929;50.810;8.342;2022-12-18T03:20:26;-11.90;99.90
5806;DHT22;2929;50.810;8.342;2022-12-18T03:23:02;-11.90;99.90
5806;DHT22;2929;50.810;8.342;2022-12-18T03:25:31;-11.80;99.90
5806;DHT22;2929;50.810;8.342;2022-12-18T03:28:03;-11.70;99.90
5806;DHT22;2929;50.810;8.342;2022-12-18T03:30:37;-11.70;99.90
5806;DHT22;2929;50.810;8.342;2022-12-18T03:33:10;-11.70;99.90
5806;DHT22;2929;50.810;8.342;2022-12-18T03:35:43;-11.70;99.90
5806;DHT22;2929;50.810;8.342;2022-12-18T03:38:12;-11.60;99.90
5806;DHT22;2929;50.810;8.342;2022-12-18T03:40:51;-11.60;99.90
5806;DHT22;2929;50.810;8.342;2022-12-18T03:43:30;-11.60;99.90
5806;DHT22;2929;50.810;8.342;2022-12-18T03:46:06;-11.60;99.90
5806;DHT22;2929;50.810;8.342;2022-12-18T03:48:40;-11.50;99.90
5806;DHT22;2929;50.810;8.342;2022-12-18T03:51:13;-11.40;99.90
5806;DHT22;2929;50.810;8.342;2022-12-18T03:53:46;-11.40;99.90
5806;DHT22;2929;50.810;8.342;2022-12-18T03:56:18;-11.50;99.90
5806;DHT22;2929;50.810;8.342;2022-12-18T03:58:50;-11.50;99.90
5806;DHT22;2929;50.810;8.342;2022-12-18T04:01:28;-11.50;99.90
5806;DHT22;2929;50.810;8.342;2022-12-18T04:03:59;-11.50;99.90
5806;DHT22;2929;50.810;8.342;2022-12-18T04:06:29;-11.60;99.90
5806;DHT22;2929;50.810;8.342;2022-12-18T04:08:58;-11.60;99.90
5806;DHT22;2929;50.810;8.342;2022-12-18T04:11:26;-11.80;99.90
5806;DHT22;2929;50.810;8.342;2022-12-18T04:13:57;-11.80;99.90
5806;DHT22;2929;50.810;8.342;2022-12-18T04:16:25;-11.90;99.90
5806;DHT22;2929;50.810;8.342;2022-12-18T04:18:55;-11.80;99.90
5806;DHT22;2929;50.810;8.342;2022-12-18T04:21:24;-11.80;99.90
5806;DHT22;2929;50.810;8.342;2022-12-18T04:23:52;-11.80;99.90
5806;DHT22;2929;50.810;8.342;2022-12-18T04:26:22;-11.70;99.90
5806;DHT22;2929;50.810;8.342;2022-12-18T04:29:09;-11.60;99.90
5806;DHT22;2929;50.810;8.342;2022-12-18T04:31:36;-11.60;99.90
5806;DHT22;2929;50.810;8.342;2022-12-18T04:34:03;-11.60;99.90
5806;DHT22;2929;50.810;8.342;2022-12-18T04:36:37;-11.60;99.90
5806;DHT22;2929;50.810;8.342;2022-12-18T04:39:04;-11.70;99.90
5806;DHT22;2929;50.810;8.342;2022-12-18T04:41:31;-11.70;99.90
5806;DHT22;2929;50.810;8.342;2022-12-18T04:43:59;-11.70;99.90
5806;DHT22;2929;50.810;8.342;2022-12-18T04:46:27;-11.80;99.90
5806;DHT22;2929;50.810;8.342;2022-12-18T04:48:54;-11.90;99.90
5806;DHT22;2929;50.810;8.342;2022-12-18T04:51:21;-11.80;99.90
5806;DHT22;2929;50.810;8.342;2022-12-18T04:53:48;-11.80;99.90
5806;DHT22;2929;50.810;8.342;2022-12-18T04:56:16;-11.80;99.90
5806;DHT22;2929;50.810;8.342;2022-12-18T04:58:44;-11.80;99.90
5806;DHT22;2929;50.810;8.342;2022-12-18T05:01:12;-11.80;99.90
5806;DHT22;2929;50.810;8.342;2022-12-18T05:03:41;-11.80;99.90
5806;DHT22;2929;50.810;8.342;2022-12-18T05:06:09;-11.80;99.90
5806;DHT22;2929;50.810;8.342;2022-12-18T05:08:36;-11.80;99.90
5806;DHT22;2929;50.810;8.342;2022-12-18T05:11:05;-11.80;99.90
5806;DHT22;2929;50.810;8.342;2022-12-18T05:13:33;-11.70;99.90
5806;DHT22;2929;50.810;8.342;2022-12-18T05:16:00;-11.80;99.90
5806;DHT22;2929;50.810;8.342;2022-12-18T05:18:28;-11.80;99.90
5806;DHT22;2929;50.810;8.342;2022-12-18T05:20:56;-11.80;99.90
5806;DHT22;2929;50.810;8.342;2022-12-18T05:23:24;-11.80;99.90
5806;DHT22;2929;50.810;8.342;2022-12-18T05:25:53;-11.90;99.90
5806;DHT22;2929;50.810;8.342;2022-12-18T05:28:20;-11.90;99.90
5806;DHT22;2929;50.810;8.342;2022-12-18T05:30:48;-11.80;99.90
5806;DHT22;2929;50.810;8.342;2022-12-18T05:33:16;-11.80;99.90
5806;DHT22;2929;50.810;8.342;2022-12-18T05:35:43;-11.70;99.90
5806;DHT22;2929;50.810;8.342;2022-12-18T05:38:12;-11.70;99.90
5806;DHT22;2929;50.810;8.342;2022-12-18T05:40:41;-11.90;99.90
5806;DHT22;2929;50.810;8.342;2022-12-18T05:43:09;-11.90;99.90
5806;DHT22;2929;50.810;8.342;2022-12-18T05:45:37;-11.80;99.90
5806;DHT22;2929;50.810;8.342;2022-12-18T05:48:04;-11.80;99.90
5806;DHT22;2929;50.810;8.342;2022-12-18T05:50:34;-11.80;99.90
5806;DHT22;2929;50.810;8.342;2022-12-18T05:53:01;-11.90;99.90
5806;DHT22;2929;50.810;8.342;2022-12-18T05:55:32;-11.90;99.90
5806;DHT22;2929;50.810;8.342;2022-12-18T05:58:00;-11.90;99.90
5806;DHT22;2929;50.810;8.342;2022-12-18T06:00:27;-11.80;99.90
5806;DHT22;2929;50.810;8.342;2022-12-18T06:02:55;-11.90;99.90
5806;DHT22;2929;50.810;8.342;2022-12-18T06:05:22;-11.90;99.90
5806;DHT22;2929;50.810;8.342;2022-12-18T06:07:49;-11.80;99.90
5806;DHT22;2929;50.810;8.342;2022-12-18T06:10:16;-11.90;99.90
5806;DHT22;2929;50.810;8.342;2022-12-18T06:12:45;-11.90;99.90
5806;DHT22;2929;50.810;8.342;2022-12-18T06:15:12;-12.00;99.90
5806;DHT22;2929;50.810;8.342;2022-12-18T06:17:39;-12.00;99.90
5806;DHT22;2929;50.810;8.342;2022-12-18T06:20:07;-12.10;99.90
5806;DHT22;2929;50.810;8.342;2022-12-18T06:22:34;-12.00;99.90
5806;DHT22;2929;50.810;8.342;2022-12-18T06:25:01;-12.00;99.90
5806;DHT22;2929;50.810;8.342;2022-12-18T06:27:28;-12.10;99.90
5806;DHT22;2929;50.810;8.342;2022-12-18T06:29:57;-12.10;99.90
5806;DHT22;2929;50.810;8.342;2022-12-18T06:32:24;-12.20;99.90
5806;DHT22;2929;50.810;8.342;2022-12-18T06:34:51;-12.10;99.90
5806;DHT22;2929;50.810;8.342;2022-12-18T06:37:18;-12.10;99.90
5806;DHT22;2929;50.810;8.342;2022-12-18T06:39:45;-12.10;99.90
5806;DHT22;2929;50.810;8.342;2022-12-18T06:42:12;-12.10;99.90
5806;DHT22;2929;50.810;8.342;2022-12-18T06:44:40;-12.10;99.90
5806;DHT22;2929;50.810;8.342;2022-12-18T06:47:08;-12.10;99.90
5806;DHT22;2929;50.810;8.342;2022-12-18T06:49:35;-12.10;99.90
5806;DHT22;2929;50.810;8.342;2022-12-18T06:52:02;-12.10;99.90
5806;DHT22;2929;50.810;8.342;2022-12-18T06:54:29;-12.10;99.90
5806;DHT22;2929;50.810;8.342;2022-12-18T06:56:56;-12.10;99.90
5806;DHT22;2929;50.810;8.342;2022-12-18T06:59:23;-12.10;99.90
5806;DHT22;2929;50.810;8.342;2022-12-18T07:01:50;-12.10;99.90
5806;DHT22;2929;50.810;8.342;2022-12-18T07:04:19;-12.00;99.90
5806;DHT22;2929;50.810;8.342;2022-12-18T07:06:46;-12.00;99.90
5806;DHT22;2929;50.810;8.342;2022-12-18T07:09:13;-11.90;99.90
5806;DHT22;2929;50.810;8.342;2022-12-18T07:11:40;-12.00;99.90
5806;DHT22;2929;50.810;8.342;2022-12-18T07:14:07;-11.90;99.90
5806;DHT22;2929;50.810;8.342;2022-12-18T07:16:34;-11.90;99.90
5806;DHT22;2929;50.810;8.342;2022-12-18T07:19:01;-12.00;99.90
5806;DHT22;2929;50.810;8.342;2022-12-18T07:21:30;-12.10;99.90
5806;DHT22;2929;50.810;8.342;2022-12-18T07:23:57;-12.10;99.90
5806;DHT22;2929;50.810;8.342;2022-12-18T07:26:24;-12.00;99.90
5806;DHT22;2929;50.810;8.342;2022-12-18T07:28:54;-12.00;99.90
5806;DHT22;2929;50.810;8.342;2022-12-18T07:31:22;-12.00;99.90
5806;DHT22;2929;50.810;8.342;2022-12-18T07:33:50;-12.10;99.90
5806;DHT22;2929;50.810;8.342;2022-12-18T07:36:18;-12.20;99.90
5806;DHT22;2929;50.810;8.342;2022-12-18T07:38:48;-12.20;99.90
5806;DHT22;2929;50.810;8.342;2022-12-18T07:41:16;-12.30;99.90
5806;DHT22;2929;50.810;8.342;2022-12-18T07:43:44;-12.20;99.90
5806;DHT22;2929;50.810;8.342;2022-12-18T07:46:12;-12.10;99.90
5806;DHT22;2929;50.810;8.342;2022-12-18T07:48:40;-12.10;99.90
5806;DHT22;2929;50.810;8.342;2022-12-18T07:51:08;-12.10;99.90
5806;DHT22;2929;50.810;8.342;2022-12-18T07:53:36;-12.00;99.90
5806;DHT22;2929;50.810;8.342;2022-12-18T07:56:07;-12.00;99.90
5806;DHT22;2929;50.810;8.342;2022-12-18T07:59:14;-12.00;99.90
5806;DHT22;2929;50.810;8.342;2022-12-18T08:01:41;-12.00;99.90
5806;DHT22;2929;50.810;8.342;2022-12-18T08:04:08;-12.00;99.90
5806;DHT22;2929;50.810;8.342;2022-12-18T08:06:35;-11.90;99.90
5806;DHT22;2929;50.810;8.342;2022-12-18T08:09:02;-11.90;99.90
5806;DHT22;2929;50.810;8.342;2022-12-18T08:11:31;-11.80;99.90
5806;DHT22;2929;50.810;8.342;2022-12-18T08:13:58;-11.80;99.90
5806;DHT22;2929;50.810;8.342;2022-12-18T08:16:25;-11.80;99.90
5806;DHT22;2929;50.810;8.342;2022-12-18T08:18:53;-11.80;99.90
5806;DHT22;2929;50.810;8.342;2022-12-18T08:21:22;-11.80;99.90
5806;DHT22;2929;50.810;8.342;2022-12-18T08:23:50;-11.70;99.90
5806;DHT22;2929;50.810;8.342;2022-12-18T08:26:18;-11.70;99.90
5806;DHT22;2929;50.810;8.342;2022-12-18T08:28:47;-11.70;99.90
5806;DHT22;2929;50.810;8.342;2022-12-18T08:31:14;-11.60;99.90
5806;DHT22;2929;50.810;8.342;2022-12-18T08:33:41;-11.60;99.90
5806;DHT22;2929;50.810;8.342;2022-12-18T08:36:09;-11.50;99.90
5806;DHT22;2929;50.810;8.342;2022-12-18T08:38:37;-11.50;99.90
5806;DHT22;2929;50.810;8.342;2022-12-18T08:41:06;-11.50;99.90
5806;DHT22;2929;50.810;8.342;2022-12-18T08:43:34;-11.40;99.90
5806;DHT22;2929;50.810;8.342;2022-12-18T08:46:21;-11.30;99.90
5806;DHT22;2929;50.810;8.342;2022-12-18T08:48:50;-11.30;99.90
5806;DHT22;2929;50.810;8.342;2022-12-18T08:51:18;-11.10;99.90
5806;DHT22;2929;50.810;8.342;2022-12-18T08:53:46;-11.00;99.90
5806;DHT22;2929;50.810;8.342;2022-12-18T08:56:13;-10.90;99.90
5806;DHT22;2929;50.810;8.342;2022-12-18T08:58:40;-10.90;99.90
5806;DHT22;2929;50.810;8.342;2022-12-18T09:01:09;-10.80;99.90
5806;DHT22;2929;50.810;8.342;2022-12-18T09:03:39;-10.80;99.90
5806;DHT22;2929;50.810;8.342;2022-12-18T09:06:06;-10.70;99.90
5806;DHT22;2929;50.810;8.342;2022-12-18T09:08:35;-10.50;99.90
5806;DHT22;2929;50.810;8.342;2022-12-18T09:11:03;-10.40;99.90
5806;DHT22;2929;50.810;8.342;2022-12-18T09:13:30;-10.30;99.90
5806;DHT22;2929;50.810;8.342;2022-12-18T09:15:58;-10.20;99.90
5806;DHT22;2929;50.810;8.342;2022-12-18T09:18:25;-10.10;99.90
5806;DHT22;2929;50.810;8.342;2022-12-18T09:20:53;-10.10;99.90
5806;DHT22;2929;50.810;8.342;2022-12-18T09:23:21;-10.00;99.90
5806;DHT22;2929;50.810;8.342;2022-12-18T09:25:48;-9.90;99.90
5806;DHT22;2929;50.810;8.342;2022-12-18T09:28:16;-9.80;99.90
5806;DHT22;2929;50.810;8.342;2022-12-18T09:30:46;-9.60;99.90
5806;DHT22;2929;50.810;8.342;2022-12-18T09:33:14;-9.40;99.90
5806;DHT22;2929;50.810;8.342;2022-12-18T09:35:43;-9.30;99.90
5806;DHT22;2929;50.810;8.342;2022-12-18T09:38:14;-9.20;99.90
5806;DHT22;2929;50.810;8.342;2022-12-18T09:40:43;-9.00;99.90
5806;DHT22;2929;50.810;8.342;2022-12-18T09:43:15;-8.90;99.90
5806;DHT22;2929;50.810;8.342;2022-12-18T09:45:45;-8.80;99.90
5806;DHT22;2929;50.810;8.342;2022-12-18T09:48:17;-8.70;99.90
5806;DHT22;2929;50.810;8.342;2022-12-18T09:50:46;-8.70;99.90
5806;DHT22;2929;50.810;8.342;2022-12-18T09:53:19;-8.50;99.90
5806;DHT22;2929;50.810;8.342;2022-12-18T09:55:47;-8.40;99.90
5806;DHT22;2929;50.810;8.342;2022-12-18T09:58:19;-8.30;99.90
5806;DHT22;2929;50.810;8.342;2022-12-18T10:00:47;-8.20;99.90
5806;DHT22;2929;50.810;8.342;2022-12-18T10:03:15;-8.10;99.90
5806;DHT22;2929;50.810;8.342;2022-12-18T10:05:48;-8.00;99.90
5806;DHT22;2929;50.810;8.342;2022-12-18T10:08:24;-7.90;99.90
5806;DHT22;2929;50.810;8.342;2022-12-18T10:10:53;-7.70;99.90
5806;DHT22;2929;50.810;8.342;2022-12-18T10:13:26;-7.60;99.90
5806;DHT22;2929;50.810;8.342;2022-12-18T10:16:08;-7.30;99.90
5806;DHT22;2929;50.810;8.342;2022-12-18T10:18:50;-7.10;99.90
5806;DHT22;2929;50.810;8.342;2022-12-18T10:21:28;-6.90;99.90
5806;DHT22;2929;50.810;8.342;2022-12-18T10:24:04;-6.70;99.90
5806;DHT22;2929;50.810;8.342;2022-12-18T10:26:35;-6.50;99.90
5806;DHT22;2929;50.810;8.342;2022-12-18T10:29:08;-6.30;99.90
5806;DHT22;2929;50.810;8.342;2022-12-18T10:31:36;-6.10;99.90
5806;DHT22;2929;50.810;8.342;2022-12-18T10:34:03;-6.00;99.90
5806;DHT22;2929;50.810;8.342;2022-12-18T10:36:30;-5.90;99.90
5806;DHT22;2929;50.810;8.342;2022-12-18T10:39:14;-5.70;99.90
5806;DHT22;2929;50.810;8.342;2022-12-18T10:41:42;-5.70;99.90
5806;DHT22;2929;50.810;8.342;2022-12-18T10:44:18;-5.70;99.90
5806;DHT22;2929;50.810;8.342;2022-12-18T10:46:46;-5.80;99.90
5806;DHT22;2929;50.810;8.342;2022-12-18T10:49:23;-5.70;99.90
5806;DHT22;2929;50.810;8.342;2022-12-18T10:52:05;-5.70;99.90
5806;DHT22;2929;50.810;8.342;2022-12-18T10:54:34;-5.60;99.90
5806;DHT22;2929;50.810;8.342;2022-12-18T10:57:15;-5.40;99.90
5806;DHT22;2929;50.810;8.342;2022-12-18T10:59:50;-5.20;99.90
5806;DHT22;2929;50.810;8.342;2022-12-18T11:02:27;-4.90;99.90
5806;DHT22;2929;50.810;8.342;2022-12-18T11:04:54;-4.70;99.90
5806;DHT22;2929;50.810;8.342;2022-12-18T11:07:21;-4.50;99.90
5806;DHT22;2929;50.810;8.342;2022-12-18T11:10:00;-3.90;99.90
5806;DHT22;2929;50.810;8.342;2022-12-18T11:12:28;-3.50;99.90
5806;DHT22;2929;50.810;8.342;2022-12-18T11:14:56;-3.30;99.90
5806;DHT22;2929;50.810;8.342;2022-12-18T11:17:28;-3.10;99.90
5806;DHT22;2929;50.810;8.342;2022-12-18T11:19:57;-2.90;99.90
5806;DHT22;2929;50.810;8.342;2022-12-18T11:22:26;-2.80;99.90
5806;DHT22;2929;50.810;8.342;2022-12-18T11:24:58;-2.80;99.90
5806;DHT22;2929;50.810;8.342;2022-12-18T11:27:26;-2.70;99.90
5806;DHT22;2929;50.810;8.342;2022-12-18T11:30:07;-2.60;99.90
5806;DHT22;2929;50.810;8.342;2022-12-18T11:32:37;-2.50;99.90
5806;DHT22;2929;50.810;8.342;2022-12-18T11:35:15;-2.30;99.90
5806;DHT22;2929;50.810;8.342;2022-12-18T11:37:48;-2.20;99.90
5806;DHT22;2929;50.810;8.342;2022-12-18T11:40:22;-2.20;99.90
5806;DHT22;2929;50.810;8.342;2022-12-18T11:46:26;-2.30;99.90
5806;DHT22;2929;50.810;8.342;2022-12-18T11:48:58;-2.30;99.90
5806;DHT22;2929;50.810;8.342;2022-12-18T11:51:33;-2.20;99.90
5806;DHT22;2929;50.810;8.342;2022-12-18T11:54:09;-2.10;99.90
5806;DHT22;2929;50.810;8.342;2022-12-18T11:56:44;-2.10;99.90
5806;DHT22;2929;50.810;8.342;2022-12-18T11:59:17;-2.10;99.90
5806;DHT22;2929;50.810;8.342;2022-12-18T12:01:50;-2.20;99.90
5806;DHT22;2929;50.810;8.342;2022-12-18T12:04:38;-2.20;99.90
5806;DHT22;2929;50.810;8.342;2022-12-18T12:07:21;-2.30;99.90
5806;DHT22;2929;50.810;8.342;2022-12-18T12:09:59;-2.20;99.90
5806;DHT22;2929;50.810;8.342;2022-12-18T12:12:39;-2.30;99.90
5806;DHT22;2929;50.810;8.342;2022-12-18T12:15:21;-2.20;99.90
5806;DHT22;2929;50.810;8.342;2022-12-18T12:17:55;-2.20;99.90
5806;DHT22;2929;50.810;8.342;2022-12-18T12:20:30;-2.20;99.90
5806;DHT22;2929;50.810;8.342;2022-12-18T12:23:05;-2.30;99.90
5806;DHT22;2929;50.810;8.342;2022-12-18T12:25:41;-2.20;99.90
5806;DHT22;2929;50.810;8.342;2022-12-18T12:28:19;-2.20;99.90
5806;DHT22;2929;50.810;8.342;2022-12-18T12:30:55;-2.20;99.90
5806;DHT22;2929;50.810;8.342;2022-12-18T12:33:36;-2.20;99.90
5806;DHT22;2929;50.810;8.342;2022-12-18T12:36:12;-2.40;99.90
5806;DHT22;2929;50.810;8.342;2022-12-18T12:38:44;-2.40;99.90
5806;DHT22;2929;50.810;8.342;2022-12-18T12:41:19;-2.50;99.90
5806;DHT22;2929;50.810;8.342;2022-12-18T12:44:24;-2.50;99.90
5806;DHT22;2929;50.810;8.342;2022-12-18T12:46:56;-2.40;99.90
5806;DHT22;2929;50.810;8.342;2022-12-18T12:49:27;-2.50;99.90
5806;DHT22;2929;50.810;8.342;2022-12-18T12:52:00;-2.70;99.90
5806;DHT22;2929;50.810;8.342;2022-12-18T12:54:32;-2.70;99.90
5806;DHT22;2929;50.810;8.342;2022-12-18T12:57:05;-2.80;99.90
5806;DHT22;2929;50.810;8.342;2022-12-18T13:00:04;-2.80;99.90
5806;DHT22;2929;50.810;8.342;2022-12-18T13:02:47;-2.80;99.90
5806;DHT22;2929;50.810;8.342;2022-12-18T13:08:54;-2.90;99.90
5806;DHT22;2929;50.810;8.342;2022-12-18T13:11:39;-3.00;99.90
5806;DHT22;2929;50.810;8.342;2022-12-18T13:14:28;-3.00;99.90
5806;DHT22;2929;50.810;8.342;2022-12-18T13:17:17;-3.10;99.90
5806;DHT22;2929;50.810;8.342;2022-12-18T13:19:44;-3.10;99.90
5806;DHT22;2929;50.810;8.342;2022-12-18T13:22:22;-3.10;99.90
5806;DHT22;2929;50.810;8.342;2022-12-18T13:24:50;-3.20;99.90
5806;DHT22;2929;50.810;8.342;2022-12-18T13:30:48;-3.40;99.90
5806;DHT22;2929;50.810;8.342;2022-12-18T13:33:41;-3.40;99.90
5806;DHT22;2929;50.810;8.342;2022-12-18T13:36:15;-3.40;99.90
5806;DHT22;2929;50.810;8.342;2022-12-18T13:38:43;-3.50;99.90
5806;DHT22;2929;50.810;8.342;2022-12-18T13:41:23;-3.50;99.90
5806;DHT22;2929;50.810;8.342;2022-12-18T13:43:52;-3.60;99.90
5806;DHT22;2929;50.810;8.342;2022-12-18T13:46:23;-3.50;99.90
5806;DHT22;2929;50.810;8.342;2022-12-18T13:48:55;-3.60;99.90
5806;DHT22;2929;50.810;8.342;2022-12-18T13:51:24;-3.60;99.90
5806;DHT22;2929;50.810;8.342;2022-12-18T13:53:54;-3.70;99.90
5806;DHT22;2929;50.810;8.342;2022-12-18T13:56:26;-3.80;99.90
5806;DHT22;2929;50.810;8.342;2022-12-18T13:59:08;-3.80;99.90
5806;DHT22;2929;50.810;8.342;2022-12-18T14:01:43;-3.90;99.90
5806;DHT22;2929;50.810;8.342;2022-12-18T14:04:19;-4.00;99.90
5806;DHT22;2929;50.810;8.342;2022-12-18T14:06:49;-4.10;99.90
5806;DHT22;2929;50.810;8.342;2022-12-18T14:09:19;-4.10;99.90
5806;DHT22;2929;50.810;8.342;2022-12-18T14:11:49;-4.10;99.90
5806;DHT22;2929;50.810;8.342;2022-12-18T14:14:17;-4.10;99.90
5806;DHT22;2929;50.810;8.342;2022-12-18T14:16:46;-4.20;99.90
5806;DHT22;2929;50.810;8.342;2022-12-18T14:19:17;-4.30;99.90
5806;DHT22;2929;50.810;8.342;2022-12-18T14:21:49;-4.40;99.90
5806;DHT22;2929;50.810;8.342;2022-12-18T14:24:19;-4.50;99.90
5806;DHT22;2929;50.810;8.342;2022-12-18T14:26:48;-4.50;99.90
5806;DHT22;2929;50.810;8.342;2022-12-18T14:29:22;-4.60;99.90
5806;DHT22;2929;50.810;8.342;2022-12-18T14:32:07;-4.50;99.90
5806;DHT22;2929;50.810;8.342;2022-12-18T14:34:35;-4.60;99.90
5806;DHT22;2929;50.810;8.342;2022-12-18T14:37:03;-4.70;99.90
5806;DHT22;2929;50.810;8.342;2022-12-18T14:39:31;-4.70;99.90
5806;DHT22;2929;50.810;8.342;2022-12-18T14:41:58;-4.70;99.90
5806;DHT22;2929;50.810;8.342;2022-12-18T14:44:26;-4.70;99.90
5806;DHT22;2929;50.810;8.342;2022-12-18T14:46:53;-4.80;99.90
5806;DHT22;2929;50.810;8.342;2022-12-18T14:49:24;-5.00;99.90
5806;DHT22;2929;50.810;8.342;2022-12-18T14:51:54;-5.10;99.90
5806;DHT22;2929;50.810;8.342;2022-12-18T14:54:23;-5.00;99.90
5806;DHT22;2929;50.810;8.342;2022-12-18T14:56:55;-5.00;99.90
5806;DHT22;2929;50.810;8.342;2022-12-18T14:59:25;-5.10;99.90
5806;DHT22;2929;50.810;8.342;2022-12-18T15:01:59;-5.00;99.90
5806;DHT22;2929;50.810;8.342;2022-12-18T15:04:28;-5.00;99.90
5806;DHT22;2929;50.810;8.342;2022-12-18T15:07:06;-5.00;99.90
5806;DHT22;2929;50.810;8.342;2022-12-18T15:09:34;-5.00;99.90
5806;DHT22;2929;50.810;8.342;2022-12-18T15:12:02;-5.00;99.90
5806;DHT22;2929;50.810;8.342;2022-12-18T15:14:38;-5.00;99.90
5806;DHT22;2929;50.810;8.342;2022-12-18T15:17:14;-5.00;99.90
5806;DHT22;2929;50.810;8.342;2022-12-18T15:19:44;-5.00;99.90
5806;DHT22;2929;50.810;8.342;2022-12-18T15:22:21;-5.10;99.90
5806;DHT22;2929;50.810;8.342;2022-12-18T15:24:50;-5.10;99.90
5806;DHT22;2929;50.810;8.342;2022-12-18T15:27:27;-5.10;99.90
5806;DHT22;2929;50.810;8.342;2022-12-18T15:30:18;-5.10;99.90
5806;DHT22;2929;50.810;8.342;2022-12-18T15:32:48;-5.10;99.90
5806;DHT22;2929;50.810;8.342;2022-12-18T15:35:18;-5.10;99.90
5806;DHT22;2929;50.810;8.342;2022-12-18T15:37:47;-5.10;99.90
5806;DHT22;2929;50.810;8.342;2022-12-18T15:40:16;-5.10;99.90
5806;DHT22;2929;50.810;8.342;2022-12-18T15:42:43;-5.10;99.90
5806;DHT22;2929;50.810;8.342;2022-12-18T15:45:28;-5.10;99.90
5806;DHT22;2929;50.810;8.342;2022-12-18T15:47:56;-5.20;99.90
5806;DHT22;2929;50.810;8.342;2022-12-18T15:50:23;-5.10;99.90
5806;DHT22;2929;50.810;8.342;2022-12-18T15:52:53;-5.10;99.90
5806;DHT22;2929;50.810;8.342;2022-12-18T15:55:22;-5.20;99.90
5806;DHT22;2929;50.810;8.342;2022-12-18T15:58:09;-5.20;99.90
5806;DHT22;2929;50.810;8.342;2022-12-18T16:00:38;-5.20;99.90
5806;DHT22;2929;50.810;8.342;2022-12-18T16:03:06;-5.20;99.90
5806;DHT22;2929;50.810;8.342;2022-12-18T16:05:33;-5.10;99.90
5806;DHT22;2929;50.810;8.342;2022-12-18T16:08:01;-5.10;99.90
5806;DHT22;2929;50.810;8.342;2022-12-18T16:10:29;-5.10;99.90
5806;DHT22;2929;50.810;8.342;2022-12-18T16:12:56;-5.10;99.90
5806;DHT22;2929;50.810;8.342;2022-12-18T16:15:24;-5.10;99.90
5806;DHT22;2929;50.810;8.342;2022-12-18T16:17:51;-5.10;99.90
5806;DHT22;2929;50.810;8.342;2022-12-18T16:20:20;-5.20;99.90
5806;DHT22;2929;50.810;8.342;2022-12-18T16:22:48;-5.20;99.90
5806;DHT22;2929;50.810;8.342;2022-12-18T16:25:19;-5.20;99.90
5806;DHT22;2929;50.810;8.342;2022-12-18T16:27:49;-5.20;99.90
5806;DHT22;2929;50.810;8.342;2022-12-18T16:30:18;-5.20;99.90